Home > Products > Valid Products > TAF

000
FTUS43 KICT 241720
TAFSLN
TAF
KSLN 241720Z 2418/2518 12016G24KT P6SM SCT035 SCT070
     FM250200 16015G23KT P6SM VCTS SCT035 BKN070CB
     FM250800 17014KT P6SM BKN015=



000
FTUS43 KICT 241720
TAFICT
TAF
KICT 241720Z 2418/2518 11013G22KT P6SM SCT035
     FM250200 15016G23KT P6SM VCTS SCT035CB BKN060
     FM250800 16013KT P6SM BKN015=



000
FTUS43 KICT 241720
TAFHUT
TAF
KHUT 241720Z 2418/2518 12015G23KT P6SM SCT035 SCT060
     FM250100 15016G23KT P6SM VCTS SCT035 BKN060CB
     FM250800 16013KT P6SM BKN015=



000
FTUS43 KICT 241720
TAFCNU
TAF
KCNU 241720Z 2418/2518 07008KT P6SM BKN020
     FM241900 12012KT P6SM BKN035
     FM250000 15012KT P6SM FEW040 SCT200
     FM250900 15009KT P6SM BKN015=



000
FTUS43 KICT 241720
TAFRSL
TAF
KRSL 241720Z 2418/2518 12015G21KT P6SM BKN050
     FM241900 14014G23KT P6SM SCT040
     FM250000 15016G24KT P6SM VCTS SCT040CB BKN070
      TEMPO 2500/2504 VRB25G45KT 1SM +TSRA OVC030CB
     FM250700 16015G23KT P6SM VCSH SCT015 BKN150
     FM251000 16017KT P6SM BKN015=



000
FTUS43 KICT 241617 AAA
TAFRSL
TAF AMD
KRSL 241617Z 2416/2512 12015G21KT P6SM BKN050
     FM241900 14014G23KT P6SM SCT040
     FM250000 15014KT P6SM VCTS SCT040CB BKN070
     FM250600 15015KT P6SM VCSH BKN035=



000
FTUS43 KICT 241254 AAA
TAFICT
TAF AMD
KICT 241254Z 2413/2512 05014KT P6SM SCT006 OVC012
      TEMPO 2413/2414 BKN006
     FM241400 09012KT P6SM VCTS OVC020CB
     FM241700 17018G25KT P6SM BKN035
     FM250000 16015G23KT P6SM VCTS SCT035 BKN070CB
     FM250300 17014KT P6SM VCTS BKN015 OVC040CB
     FM250600 17013KT P6SM VCSH BKN015=



000
FTUS43 KICT 231738 AAA
TAFCNU
TAF AMD
KCNU 231738Z 2318/2418 17014G21KT P6SM SCT030 BKN040
      TEMPO 2318/2322 4SM -TSRA BKN025CB
     FM240100 16010KT P6SM BKN070
     FM241000 17009KT P6SM VCTS BKN025CB WS020/20035KT
     FM241200 17009KT P6SM VCTS BKN020CB
     FM241500 18008KT P6SM BKN030=



000
FTUS43 KICT 231738 AAC
TAFHUT
TAF AMD
KHUT 231738Z 2318/2418 16014G20KT P6SM SCT020 BKN050
     FM240600 17011KT P6SM VCTS BKN025CB
     FM240900 18008KT P6SM VCTS BKN012CB
     FM241500 14011KT P6SM BKN025=



000
FTUS43 KICT 231738 AAB
TAFSLN
TAF AMD
KSLN 231738Z 2318/2418 17015G21KT P6SM SCT030 BKN080
     FM240000 16012KT P6SM SCT030 BKN080
     FM240600 17009KT P6SM VCTS BKN025CB
     FM240900 17005KT P6SM VCTS BKN014CB
     FM241500 16009KT P6SM BKN030=



000
FTUS43 KICT 231738 AAE
TAFICT
TAF AMD
KICT 231738Z 2318/2418 17014KT P6SM SCT030 BKN050
      TEMPO 2318/2319 VRB15G22KT 4SM -TSRA SCT020 BKN035CB
     FM240600 17010KT P6SM VCTS BKN025CB
     FM240900 17008KT P6SM VCTS BKN012CB
     FM241600 16009KT P6SM BKN028=



000
FTUS43 KICT 231738 AAA
TAFRSL
TAF AMD
KRSL 231738Z 2318/2418 17015G22KT P6SM SCT030 BKN050
     FM240000 17012KT P6SM SCT030 BKN080
     FM240300 15010KT P6SM VCTS BKN030CB
     FM240900 16011KT P6SM VCTS BKN014CB
     FM241200 15005KT P6SM BKN015=



000
FTUS43 KICT 231317 AAB
TAFICT
TAF AMD
KICT 231317Z 2313/2412 17016G25KT P6SM VCTS BKN025 OVC080CB
      TEMPO 2313/2315 2SM TSRA BR BKN025CB
     FM231500 17016G23KT P6SM VCTS BKN025 OVC080CB
     FM231700 17016G23KT P6SM SCT025 BKN035
     FM232300 17016G25KT P6SM BKN025=



000
FTUS43 KICT 231230 AAA
TAFSLN
TAF AMD
KSLN 231230Z 2313/2412 17014G20KT P6SM VCTS OVC020CB
      TEMPO 2313/2316 VRB25G35KT 2SM TSRA OVC020CB
     FM231600 17016G23KT P6SM BKN035
     FM240500 17014G25KT P6SM VCTS BKN025CB=



000
FTUS43 KICT 231228 AAA
TAFHUT
TAF AMD
KHUT 231228Z 2312/2412 17013KT P6SM VCTS SCT020CB OVC100CB
      TEMPO 2313/2315 5SM -TSRA BR BKN020CB
     FM231700 17016G23KT P6SM BKN035
     FM232300 17016G25KT P6SM VCTS SCT025 BKN060CB
     FM240500 17012G24KT P6SM VCSH BKN025=



000
FTUS43 KICT 231227 AAB
TAFICT
TAF AMD
KICT 231227Z 2312/2412 17016G25KT P6SM VCTS BKN025 OVC080CB
      TEMPO 2312/2315 5SM -TSRA BR BKN025CB
     FM231500 17016G23KT P6SM VCTS BKN025 OVC080CB
     FM231700 17016G23KT P6SM SCT025 BKN035
     FM232300 17016G25KT P6SM BKN025=



000
FTUS43 KICT 230841 AAA
TAFICT
TAF AMD
KICT 230841Z 2309/2406 17016G25KT P6SM SCT035 OVC150
     FM231000 17016G25KT P6SM VCTS SCT025 OVC120CB
     FM231600 17016G23KT P6SM BKN035=



000
FTUS43 KICT 230522
TAFICT
TAF
KICT 230522Z 2306/2406 16017G24KT P6SM SCT030
      TEMPO 2306/2308 BKN030
     FM230800 17014G20KT P6SM VCTS OVC020CB
     FM231600 17016G23KT P6SM BKN035=



000
FTUS43 KICT 230522
TAFSLN
TAF
KSLN 230522Z 2306/2406 16017G24KT P6SM SCT030
      TEMPO 2306/2308 BKN030
     FM230800 17014G20KT P6SM VCTS OVC020CB
     FM231600 17016G23KT P6SM BKN035=



000
FTUS43 KICT 230522
TAFRSL
TAF
KRSL 230522Z 2306/2406 17019G27KT P6SM VCTS SCT020CB
      TEMPO 2306/2307 BKN020CB
     FM230700 17016G23KT P6SM VCTS OVC015CB
     FM231500 16014G20KT P6SM BKN030
     FM232200 14012KT P6SM VCTS BKN050CB
     FM240300 12011KT P6SM OVC025=



000
FTUS43 KICT 230522
TAFHUT
TAF
KHUT 230522Z 2306/2406 16015G22KT P6SM SCT030
      TEMPO 2306/2308 BKN030
     FM230800 17013KT P6SM VCTS OVC020CB
     FM231600 17016G23KT P6SM BKN035=



000
FTUS43 KICT 230522
TAFCNU
TAF
KCNU 230522Z 2306/2406 16009KT P6SM SCT040 BKN120
     FM231400 17013KT P6SM VCTS BKN035CB
     FM232200 16011KT P6SM SCT040=



000
FTUS43 KICT 222338
TAFCNU
TAF
KCNU 222338Z 2300/2324 15010KT P6SM SCT040
     FM231600 17013KT P6SM BKN035=



000
FTUS43 KICT 222338
TAFICT
TAF
KICT 222338Z 2300/2324 16017G24KT P6SM BKN040
     FM230800 16013KT P6SM OVC025
     FM231600 17016G23KT P6SM BKN035=



000
FTUS43 KICT 222338
TAFRSL
TAF
KRSL 222338Z 2300/2324 16017G24KT P6SM BKN030
     FM230600 16015G22KT P6SM OVC020
     FM231600 17015G22KT P6SM BKN035=



000
FTUS43 KICT 222338
TAFSLN
TAF
KSLN 222338Z 2300/2324 16017G24KT P6SM BKN040
     FM230800 16014G20KT P6SM OVC025
     FM231600 17016G23KT P6SM BKN035=



000
FTUS43 KICT 222338
TAFHUT
TAF
KHUT 222338Z 2300/2324 16015G22KT P6SM BKN040
     FM230800 16012KT P6SM OVC025
     FM231600 17016G23KT P6SM BKN035=



000
FTUS43 KICT 221845 AAA
TAFHUT
TAF AMD
KHUT 221845Z 2219/2318 17020G28KT P6SM BKN025
     FM230200 16013KT P6SM BKN025
     FM230800 16013KT P6SM BKN025=



000
FTUS43 KICT 221845 AAA
TAFRSL
TAF AMD
KRSL 221845Z 2219/2318 17022G30KT P6SM BKN025
     FM230200 16015G22KT P6SM BKN025
     FM230600 16015G22KT P6SM BKN015=



000
FTUS43 KICT 221720
TAFSLN
TAF
KSLN 221720Z 2218/2318 17020G28KT P6SM SCT035
     FM230200 16015G22KT P6SM BKN035
     FM230700 16015G22KT P6SM BKN025=



000
FTUS43 KICT 221720
TAFCNU
TAF
KCNU 221720Z 2218/2318 15017KT P6SM SCT250
     FM230100 15008KT P6SM SCT060=



000
FTUS43 KICT 221720
TAFRSL
TAF
KRSL 221720Z 2218/2318 17022G30KT P6SM SCT025
     FM230200 16015G22KT P6SM BKN025
     FM230600 16015G22KT P6SM BKN015=



000
FTUS43 KICT 221720
TAFICT
TAF
KICT 221720Z 2218/2318 16020G28KT P6SM SCT060
     FM230200 16013KT P6SM BKN060
     FM230900 16013KT P6SM BKN025=



000
FTUS43 KICT 221720
TAFHUT
TAF
KHUT 221720Z 2218/2318 17020G28KT P6SM SCT025 BKN035
     FM230200 16013KT P6SM BKN035
     FM230800 16013KT P6SM BKN025=



000
FTUS43 KICT 221305 AAA
TAFHUT
TAF AMD
KHUT 221305Z 2213/2312 13009KT P6SM OVC035
     FM221500 14017KT P6SM OVC035
     FM221700 16022G26KT P6SM BKN035=



000
FTUS43 KICT 221203 AAA
TAFRSL
TAF AMD
KRSL 221203Z 2212/2312 16022G26KT P6SM VCSH SCT050 OVC100
      TEMPO 2212/2215 BKN035
     FM221500 17017G25KT P6SM OVC025
     FM221700 17022G30KT P6SM OVC035=



000
FTUS43 KICT 221125
TAFICT
TAF
KICT 221125Z 2212/2312 15017KT P6SM OVC035
     FM221700 15017G25KT P6SM BKN035=



000
FTUS43 KICT 212322
TAFCNU
TAF
KCNU 212322Z 2200/2224 11008KT P6SM SCT035
      TEMPO 2209/2213 BKN020
     FM221600 15010KT P6SM BKN035=



000
FTUS43 KICT 212322
TAFSLN
TAF
KSLN 212322Z 2200/2224 12013KT P6SM OVC030
      TEMPO 2200/2204 OVC035
     FM220900 13010KT P6SM OVC020
     FM221700 15014G20KT P6SM OVC030=



000
FTUS43 KICT 212322
TAFICT
TAF
KICT 212322Z 2200/2224 14013G19KT P6SM OVC030
      TEMPO 2200/2204 BKN035
     FM220800 12010KT P6SM OVC020
     FM221700 15014G20KT P6SM OVC030=



000
FTUS43 KICT 212322
TAFHUT
TAF
KHUT 212322Z 2200/2224 14013G19KT P6SM OVC028
      TEMPO 2200/2204 BKN035
     FM220800 12010KT P6SM OVC015
     FM221700 15014G20KT P6SM OVC025=



000
FTUS43 KICT 212322
TAFRSL
TAF
KRSL 212322Z 2200/2224 13016G23KT P6SM OVC020
     FM220600 13013G19KT 5SM BR OVC008
     FM221500 15016G23KT P6SM OVC015
     FM221800 16017G24KT P6SM OVC025=



000
FTUS43 KICT 212047 AAB
TAFICT
TAF AMD
KICT 212047Z 2121/2218 15016KT P6SM BKN035
     FM220400 12010KT P6SM OVC035=



    US Dept of Commerce
    National Oceanic and Atmospheric Administration
    National Weather Service
    1325 East West Highway
    Silver Spring, MD 20910
    Page Author: NWS Internet Services Team
Disclaimer
Information Quality
Credits
Glossary
Privacy Policy
Freedom of Information Act (FOIA)
About Us
Career Opportunities